createdAt,value
2022-10-07T05:11:12.845Z,20.70
2022-10-07T05:38:04.524Z,23.00
2022-10-07T06:15:11.368Z,17.20
2022-10-07T06:18:08.758Z,16.20
2022-10-07T06:20:38.582Z,19.70
2022-10-07T06:24:41.497Z,20.60
2022-10-07T06:27:08.447Z,15.00
2022-10-07T06:38:44.080Z,16.10
2022-10-07T06:42:00.337Z,19.90
2022-10-07T06:45:39.264Z,17.90
2022-10-07T06:48:17.810Z,22.30
2022-10-07T06:50:52.358Z,21.50
2022-10-07T06:53:19.618Z,17.80
2022-10-07T06:56:22.132Z,16.00
2022-10-07T06:58:51.514Z,14.20
2022-10-07T07:06:59.940Z,20.60
2022-10-07T07:09:33.843Z,13.30
2022-10-07T07:12:02.153Z,13.30
2022-10-07T07:18:34.415Z,15.30
2022-10-07T07:40:20.034Z,15.00
2022-10-07T07:44:30.064Z,11.50
2022-10-07T08:19:53.437Z,13.50
2022-10-07T08:30:52.216Z,16.10
2022-10-07T08:42:52.147Z,26.50
2022-10-07T08:46:20.784Z,32.10
2022-10-07T08:56:21.357Z,12.90
2022-10-07T08:57:38.079Z,12.50
2022-10-07T09:00:50.374Z,8.90
2022-10-07T09:01:51.027Z,11.80
2022-10-07T09:04:15.974Z,12.20
2022-10-07T09:07:40.356Z,21.50
2022-10-07T09:10:33.935Z,12.30
2022-10-07T09:19:11.427Z,18.70
2022-10-07T09:44:39.011Z,9.60
2022-10-07T09:46:54.394Z,17.90
2022-10-07T09:55:25.733Z,6.10
2022-10-07T10:03:12.562Z,9.60
2022-10-07T10:14:59.717Z,12.90
2022-10-07T10:15:26.030Z,10.30
2022-10-07T10:18:37.152Z,19.00
2022-10-07T10:23:19.844Z,9.30
2022-10-07T10:26:08.753Z,13.00
2022-10-07T10:28:38.440Z,4.80
2022-10-07T10:31:22.031Z,10.90
2022-10-07T10:34:55.331Z,6.30
2022-10-07T10:37:53.673Z,12.60
2022-10-07T10:40:46.219Z,12.40
2022-10-07T10:43:55.067Z,12.20
2022-10-07T10:46:27.275Z,8.70
2022-10-07T10:49:10.120Z,7.80
2022-10-07T10:51:42.875Z,7.60
2022-10-07T10:54:40.910Z,12.50
2022-10-07T10:57:31.100Z,15.20
2022-10-07T11:03:15.983Z,9.90
2022-10-07T11:05:44.305Z,12.40
2022-10-07T11:08:27.445Z,10.40
2022-10-07T11:11:14.809Z,24.20
2022-10-07T11:13:56.578Z,9.40
2022-10-07T11:16:38.035Z,8.90
2022-10-07T11:19:19.588Z,11.10
2022-10-07T11:21:49.496Z,7.00
2022-10-07T11:24:34.499Z,10.10
2022-10-07T11:27:19.710Z,6.30
2022-10-07T11:29:53.276Z,6.40
2022-10-07T11:32:43.838Z,26.20
2022-10-07T11:35:32.110Z,6.90
2022-10-07T11:38:13.562Z,7.90
2022-10-07T11:40:48.791Z,8.90
2022-10-07T11:43:24.882Z,7.40
2022-10-07T11:45:57.450Z,8.00
2022-10-07T11:48:39.036Z,8.30
2022-10-07T11:51:08.777Z,12.20
2022-10-07T11:53:39.780Z,4.80
2022-10-07T11:56:23.695Z,6.60
2022-10-07T11:59:02.164Z,10.90
2022-10-07T12:01:40.638Z,8.40
2022-10-07T12:04:24.756Z,9.70
2022-10-07T12:07:29.645Z,10.00
2022-10-07T12:10:03.283Z,7.40
2022-10-07T12:12:43.938Z,7.10
2022-10-07T12:15:22.503Z,6.30
2022-10-07T12:18:04.084Z,8.50
2022-10-07T12:20:36.694Z,12.70
2022-10-07T12:23:18.922Z,14.30
2022-10-07T12:25:59.081Z,8.90
2022-10-07T12:31:11.821Z,7.10
2022-10-07T12:33:42.631Z,12.60
2022-10-07T12:36:18.120Z,6.40
2022-10-07T12:39:08.466Z,12.00
2022-10-07T12:41:43.261Z,7.30
2022-10-07T12:45:32.471Z,6.20
2022-10-07T12:48:02.024Z,8.60
2022-10-07T12:50:31.584Z,7.60
2022-10-07T12:53:01.973Z,8.80
2022-10-07T12:55:39.902Z,49.90
2022-10-07T12:59:02.219Z,8.20
2022-10-07T13:01:50.433Z,8.40
2022-10-07T13:04:54.132Z,8.00
2022-10-07T13:08:06.199Z,8.90
2022-10-07T13:10:59.940Z,7.30
2022-10-07T13:13:43.787Z,9.30
2022-10-07T13:16:31.314Z,10.60
2022-10-07T13:19:22.296Z,11.70
2022-10-07T13:22:01.030Z,9.30
2022-10-07T13:24:28.711Z,13.70
2022-10-07T13:26:56.974Z,8.60
2022-10-07T13:29:27.235Z,7.20
2022-10-07T13:34:35.713Z,6.30
2022-10-07T13:37:17.979Z,10.90
2022-10-07T13:39:44.643Z,8.50
2022-10-07T13:42:16.923Z,14.20
2022-10-07T13:44:46.051Z,8.40
2022-10-07T13:47:21.977Z,8.10
2022-10-07T13:49:52.692Z,8.00
2022-10-07T13:52:34.809Z,8.00
2022-10-07T13:55:01.486Z,7.10
2022-10-07T13:57:30.721Z,8.10
2022-10-07T14:00:00.024Z,7.40
2022-10-07T14:02:27.285Z,7.20
2022-10-07T14:05:05.263Z,6.80
2022-10-07T14:07:34.226Z,7.30
2022-10-07T14:10:09.089Z,8.10
2022-10-07T14:12:38.872Z,7.10
2022-10-07T14:15:24.049Z,7.40
2022-10-07T14:17:55.733Z,7.90
2022-10-07T14:20:33.229Z,9.80
2022-10-07T14:23:06.129Z,7.90
2022-10-07T14:25:56.893Z,8.20
2022-10-07T14:28:23.661Z,10.20
2022-10-07T14:31:26.828Z,6.60
2022-10-07T14:34:14.556Z,12.30
2022-10-07T14:37:02.843Z,8.80
2022-10-07T14:39:37.993Z,7.90
2022-10-07T14:42:11.180Z,5.10
2022-10-07T14:44:38.020Z,9.50
2022-10-07T14:47:10.470Z,8.20
2022-10-07T14:49:37.416Z,12.50
2022-10-07T14:52:05.565Z,8.10
2022-10-07T14:54:34.255Z,13.10
2022-10-07T14:57:01.026Z,13.60
2022-10-07T14:59:27.681Z,17.80
2022-10-07T15:01:54.503Z,10.80
2022-10-07T15:04:21.343Z,11.70
2022-10-07T15:06:50.877Z,12.30
2022-10-07T15:09:17.873Z,6.50
2022-10-07T15:11:44.673Z,8.10
2022-10-07T15:14:11.618Z,9.90
2022-10-07T15:16:41.163Z,9.20
2022-10-07T15:19:08.756Z,7.60
2022-10-07T15:21:35.597Z,13.10
2022-10-07T15:24:05.436Z,12.60
2022-10-07T15:26:32.035Z,9.10
2022-10-07T15:28:59.102Z,12.90
2022-10-07T15:31:28.489Z,14.90
2022-10-07T15:33:57.117Z,11.10
2022-10-07T15:36:26.367Z,11.40
2022-10-07T15:38:53.759Z,21.00
2022-10-07T15:41:38.481Z,12.70
2022-10-07T15:44:11.400Z,13.50
2022-10-07T15:46:38.170Z,13.70
2022-10-07T15:49:05.002Z,12.90
2022-10-07T15:51:31.707Z,13.40
2022-10-07T15:53:59.063Z,19.00
2022-10-07T15:56:27.824Z,14.50
2022-10-07T15:58:54.472Z,13.90
2022-10-07T16:01:21.378Z,14.80
2022-10-07T16:03:50.438Z,10.50
2022-10-07T16:06:22.034Z,13.90
2022-10-07T16:09:15.384Z,22.20
2022-10-07T16:11:42.242Z,18.00
2022-10-07T16:14:09.517Z,13.50
2022-10-07T16:16:37.501Z,13.10
2022-10-07T16:19:07.285Z,15.50
2022-10-07T16:21:40.478Z,15.70
2022-10-07T16:24:13.760Z,16.20
2022-10-07T16:26:42.250Z,16.00
2022-10-07T16:29:33.366Z,14.20
2022-10-07T16:32:03.704Z,18.30
2022-10-07T16:34:32.174Z,16.70
2022-10-07T16:36:59.396Z,18.00
2022-10-07T16:39:26.672Z,22.80
2022-10-07T16:41:54.463Z,25.40
2022-10-07T16:44:23.301Z,25.70
2022-10-07T16:46:55.816Z,25.10
2022-10-07T16:49:25.277Z,31.80
2022-10-07T16:51:52.589Z,32.80
2022-10-07T16:54:21.094Z,29.80
2022-10-07T16:56:51.834Z,38.60
2022-10-07T16:59:24.427Z,32.00
2022-10-07T17:01:55.884Z,34.30
2022-10-07T17:04:23.856Z,29.50
2022-10-07T17:06:53.747Z,28.70
2022-10-07T17:09:25.749Z,25.80
2022-10-07T17:11:57.923Z,24.10
2022-10-07T17:14:25.856Z,22.30
2022-10-07T17:16:56.523Z,17.10
2022-10-07T17:19:25.920Z,27.10
2022-10-07T17:21:54.222Z,46.70
2022-10-07T17:24:22.362Z,171.50
2022-10-07T17:26:51.802Z,134.50
2022-10-07T17:29:20.478Z,85.70
2022-10-07T17:31:49.745Z,66.40
2022-10-07T17:34:19.778Z,64.90
2022-10-07T17:36:47.400Z,67.70
2022-10-07T17:39:14.792Z,62.10
2022-10-07T17:41:41.571Z,56.90
2022-10-07T17:44:11.020Z,60.60
2022-10-07T17:46:39.115Z,60.00
2022-10-07T17:49:08.301Z,60.40
2022-10-07T17:51:38.816Z,57.00
2022-10-07T17:54:06.224Z,53.90
2022-10-07T17:56:35.367Z,59.00
2022-10-07T17:59:04.725Z,53.70
2022-10-07T18:01:33.613Z,52.70
2022-10-07T18:04:03.870Z,55.80
2022-10-07T18:06:34.474Z,59.30
2022-10-07T18:09:04.622Z,50.90
2022-10-07T18:11:51.362Z,51.00
2022-10-07T18:14:37.066Z,49.30
2022-10-07T18:17:07.139Z,49.50
2022-10-07T18:19:37.293Z,48.90
2022-10-07T18:26:12.180Z,48.40
2022-10-07T19:11:21.493Z,41.90
2022-10-07T19:13:52.654Z,37.70
2022-10-07T19:19:42.563Z,40.60
2022-10-07T19:22:09.285Z,31.00
2022-10-07T19:24:56.513Z,36.10
2022-10-07T19:27:23.466Z,29.90
2022-10-07T19:29:52.725Z,34.30
2022-10-07T19:32:19.397Z,34.00
2022-10-07T19:35:33.998Z,39.90
2022-10-07T19:38:20.123Z,42.20
2022-10-07T19:41:01.345Z,40.40
2022-10-07T19:43:38.041Z,49.10
2022-10-07T19:46:09.387Z,37.50
2022-10-07T19:48:36.857Z,41.30
2022-10-07T19:51:14.267Z,40.30
2022-10-07T19:54:09.306Z,41.80
2022-10-07T19:57:02.212Z,39.30
2022-10-07T20:00:44.857Z,45.80
2022-10-07T20:03:15.983Z,39.90
2022-10-07T20:06:15.625Z,34.30
2022-10-07T20:09:19.825Z,38.10
2022-10-07T20:13:22.654Z,33.00
2022-10-07T20:15:51.838Z,36.70
2022-10-07T20:18:49.226Z,33.00
2022-10-07T20:24:09.612Z,32.60
2022-10-07T20:26:38.956Z,30.00
2022-10-07T20:29:53.237Z,33.20
2022-10-07T20:32:21.784Z,41.20
2022-10-07T20:34:54.349Z,36.70
2022-10-07T20:37:21.207Z,35.40
2022-10-07T20:43:16.266Z,40.30
2022-10-07T20:45:58.667Z,38.70
2022-10-07T20:48:31.858Z,40.50
2022-10-07T20:51:07.623Z,42.40
2022-10-07T20:57:21.859Z,32.70
2022-10-07T20:59:49.141Z,35.60
2022-10-07T21:02:18.156Z,39.10
2022-10-07T21:04:48.379Z,56.40
2022-10-07T21:07:21.576Z,37.70
2022-10-07T21:09:48.391Z,37.60
2022-10-07T21:12:41.943Z,37.80
2022-10-07T21:15:15.843Z,37.40
2022-10-07T21:17:49.351Z,37.20
2022-10-07T21:20:25.518Z,36.00
2022-10-07T21:22:53.638Z,33.60
2022-10-07T21:25:22.586Z,35.00
2022-10-07T21:28:13.758Z,42.20
2022-10-07T21:31:22.763Z,32.20
2022-10-07T21:33:57.392Z,31.40
2022-10-07T21:36:43.344Z,39.40
2022-10-07T21:39:18.416Z,35.50
2022-10-07T21:41:49.928Z,36.80
2022-10-07T21:44:47.456Z,36.40
2022-10-07T21:48:11.340Z,35.20
2022-10-07T21:50:38.148Z,32.10
2022-10-07T21:53:15.205Z,38.10
2022-10-07T21:55:44.696Z,28.50
2022-10-07T21:58:19.250Z,35.80
2022-10-07T22:00:48.505Z,31.40
2022-10-07T22:03:36.228Z,26.10
2022-10-07T22:06:08.553Z,29.40
2022-10-07T22:08:36.034Z,25.50
2022-10-07T22:11:15.739Z,27.00
2022-10-07T22:14:18.095Z,23.90
2022-10-07T22:16:54.460Z,25.20
2022-10-07T22:19:24.422Z,23.70
2022-10-07T22:21:58.687Z,22.10
2022-10-07T22:24:25.590Z,18.30
2022-10-07T22:33:19.641Z,18.70
2022-10-07T22:35:02.609Z,22.60
2022-10-07T22:37:44.789Z,23.30
2022-10-07T22:43:57.582Z,27.10
2022-10-07T22:46:38.545Z,26.30
2022-10-07T22:49:32.237Z,26.60
2022-10-07T22:52:22.431Z,22.30
2022-10-07T22:53:22.057Z,24.40
2022-10-07T22:54:52.356Z,23.60
2022-10-07T22:57:41.321Z,24.60
2022-10-07T23:00:31.540Z,22.00
2022-10-07T23:06:03.658Z,18.70
2022-10-07T23:09:30.929Z,21.30
2022-10-07T23:12:08.075Z,24.10
2022-10-07T23:14:57.907Z,22.30
